sensor_id;sensor_type;location;lat;lon;timestamp;P1;durP1;ratioP1;P2;durP2;ratioP2
50976;SDS011;36992;48.200;12.418;2023-12-28T00:01:06;2.75;;;1.15;;
50976;SDS011;36992;48.200;12.418;2023-12-28T00:03:34;2.78;;;1.13;;
50976;SDS011;36992;48.200;12.418;2023-12-28T00:06:00;2.45;;;0.70;;
50976;SDS011;36992;48.200;12.418;2023-12-28T00:08:27;4.63;;;1.30;;
50976;SDS011;36992;48.200;12.418;2023-12-28T00:10:54;2.83;;;1.15;;
50976;SDS011;36992;48.200;12.418;2023-12-28T00:13:20;3.13;;;1.30;;
50976;SDS011;36992;48.200;12.418;2023-12-28T00:15:47;3.65;;;1.10;;
50976;SDS011;36992;48.200;12.418;2023-12-28T00:18:13;3.15;;;1.63;;
50976;SDS011;36992;48.200;12.418;2023-12-28T00:20:41;2.97;;;1.15;;
50976;SDS011;36992;48.200;12.418;2023-12-28T00:23:07;2.70;;;1.10;;
50976;SDS011;36992;48.200;12.418;2023-12-28T00:25:34;3.22;;;1.13;;
50976;SDS011;36992;48.200;12.418;2023-12-28T00:28:00;2.95;;;1.13;;
50976;SDS011;36992;48.200;12.418;2023-12-28T00:30:27;4.45;;;2.05;;
50976;SDS011;36992;48.200;12.418;2023-12-28T00:32:53;3.70;;;1.35;;
50976;SDS011;36992;48.200;12.418;2023-12-28T00:35:20;2.72;;;1.13;;
50976;SDS011;36992;48.200;12.418;2023-12-28T00:37:48;2.90;;;1.10;;
50976;SDS011;36992;48.200;12.418;2023-12-28T00:40:14;3.13;;;1.10;;
50976;SDS011;36992;48.200;12.418;2023-12-28T00:42:41;2.40;;;1.02;;
50976;SDS011;36992;48.200;12.418;2023-12-28T00:45:07;3.70;;;1.40;;
50976;SDS011;36992;48.200;12.418;2023-12-28T00:47:34;4.40;;;1.30;;
50976;SDS011;36992;48.200;12.418;2023-12-28T00:50:01;2.08;;;1.00;;
50976;SDS011;36992;48.200;12.418;2023-12-28T00:52:27;2.28;;;1.02;;
50976;SDS011;36992;48.200;12.418;2023-12-28T00:54:55;3.95;;;1.60;;
50976;SDS011;36992;48.200;12.418;2023-12-28T00:57:21;4.50;;;1.27;;
50976;SDS011;36992;48.200;12.418;2023-12-28T00:59:48;2.75;;;1.02;;
50976;SDS011;36992;48.200;12.418;2023-12-28T01:02:14;1.50;;;0.70;;
50976;SDS011;36992;48.200;12.418;2023-12-28T01:04:41;3.28;;;1.30;;
50976;SDS011;36992;48.200;12.418;2023-12-28T01:07:07;2.47;;;0.90;;
50976;SDS011;36992;48.200;12.418;2023-12-28T01:09:34;3.92;;;1.15;;
50976;SDS011;36992;48.200;12.418;2023-12-28T01:12:01;2.88;;;1.13;;
50976;SDS011;36992;48.200;12.418;2023-12-28T01:14:28;2.47;;;0.95;;
50976;SDS011;36992;48.200;12.418;2023-12-28T01:16:54;3.75;;;0.95;;
50976;SDS011;36992;48.200;12.418;2023-12-28T01:19:21;2.55;;;0.98;;
50976;SDS011;36992;48.200;12.418;2023-12-28T01:21:48;2.90;;;1.15;;
50976;SDS011;36992;48.200;12.418;2023-12-28T01:24:14;2.97;;;0.55;;
50976;SDS011;36992;48.200;12.418;2023-12-28T01:26:41;3.38;;;1.10;;
50976;SDS011;36992;48.200;12.418;2023-12-28T01:29:09;3.35;;;1.20;;
50976;SDS011;36992;48.200;12.418;2023-12-28T01:31:36;2.28;;;0.77;;
50976;SDS011;36992;48.200;12.418;2023-12-28T01:34:03;2.95;;;1.10;;
50976;SDS011;36992;48.200;12.418;2023-12-28T01:36:30;4.38;;;1.00;;
50976;SDS011;36992;48.200;12.418;2023-12-28T01:38:56;2.25;;;1.00;;
50976;SDS011;36992;48.200;12.418;2023-12-28T01:41:23;3.85;;;1.02;;
50976;SDS011;36992;48.200;12.418;2023-12-28T01:43:49;2.03;;;0.68;;
50976;SDS011;36992;48.200;12.418;2023-12-28T01:46:18;2.28;;;0.80;;
50976;SDS011;36992;48.200;12.418;2023-12-28T01:48:47;2.70;;;0.80;;
50976;SDS011;36992;48.200;12.418;2023-12-28T01:51:15;3.13;;;0.95;;
50976;SDS011;36992;48.200;12.418;2023-12-28T01:53:42;1.83;;;0.73;;
50976;SDS011;36992;48.200;12.418;2023-12-28T01:56:09;3.25;;;1.33;;
50976;SDS011;36992;48.200;12.418;2023-12-28T01:58:36;2.65;;;0.82;;
50976;SDS011;36992;48.200;12.418;2023-12-28T02:01:05;3.33;;;1.25;;
50976;SDS011;36992;48.200;12.418;2023-12-28T02:03:33;2.88;;;0.85;;
50976;SDS011;36992;48.200;12.418;2023-12-28T02:06:00;2.47;;;0.65;;
50976;SDS011;36992;48.200;12.418;2023-12-28T02:08:27;2.00;;;0.88;;
50976;SDS011;36992;48.200;12.418;2023-12-28T02:10:54;1.73;;;0.73;;
50976;SDS011;36992;48.200;12.418;2023-12-28T02:13:21;2.83;;;0.95;;
50976;SDS011;36992;48.200;12.418;2023-12-28T02:15:49;2.97;;;0.68;;
50976;SDS011;36992;48.200;12.418;2023-12-28T02:18:21;2.50;;;0.75;;
50976;SDS011;36992;48.200;12.418;2023-12-28T02:20:53;2.42;;;0.85;;
50976;SDS011;36992;48.200;12.418;2023-12-28T02:23:20;2.47;;;0.80;;
50976;SDS011;36992;48.200;12.418;2023-12-28T02:25:48;1.65;;;0.73;;
50976;SDS011;36992;48.200;12.418;2023-12-28T02:28:14;1.38;;;0.70;;
50976;SDS011;36992;48.200;12.418;2023-12-28T02:30:41;2.20;;;0.77;;
50976;SDS011;36992;48.200;12.418;2023-12-28T02:33:11;3.45;;;1.17;;
50976;SDS011;36992;48.200;12.418;2023-12-28T02:35:45;2.75;;;1.15;;
50976;SDS011;36992;48.200;12.418;2023-12-28T02:38:17;2.65;;;0.73;;
50976;SDS011;36992;48.200;12.418;2023-12-28T02:40:45;3.15;;;0.80;;
50976;SDS011;36992;48.200;12.418;2023-12-28T02:43:15;2.78;;;1.08;;
50976;SDS011;36992;48.200;12.418;2023-12-28T02:45:41;2.50;;;0.65;;
50976;SDS011;36992;48.200;12.418;2023-12-28T02:48:08;2.17;;;0.80;;
50976;SDS011;36992;48.200;12.418;2023-12-28T02:50:35;4.18;;;1.00;;
50976;SDS011;36992;48.200;12.418;2023-12-28T02:53:02;1.98;;;0.73;;
50976;SDS011;36992;48.200;12.418;2023-12-28T02:55:29;2.35;;;0.90;;
50976;SDS011;36992;48.200;12.418;2023-12-28T02:57:56;3.08;;;0.90;;
50976;SDS011;36992;48.200;12.418;2023-12-28T03:00:25;1.88;;;0.60;;
50976;SDS011;36992;48.200;12.418;2023-12-28T03:02:52;2.05;;;0.70;;
50976;SDS011;36992;48.200;12.418;2023-12-28T03:05:19;2.15;;;0.70;;
50976;SDS011;36992;48.200;12.418;2023-12-28T03:07:46;1.70;;;0.60;;
50976;SDS011;36992;48.200;12.418;2023-12-28T03:10:12;2.22;;;0.77;;
50976;SDS011;36992;48.200;12.418;2023-12-28T03:12:39;1.67;;;0.60;;
50976;SDS011;36992;48.200;12.418;2023-12-28T03:15:06;2.10;;;0.57;;
50976;SDS011;36992;48.200;12.418;2023-12-28T03:17:34;2.67;;;0.90;;
50976;SDS011;36992;48.200;12.418;2023-12-28T03:20:02;2.42;;;0.80;;
50976;SDS011;36992;48.200;12.418;2023-12-28T03:22:29;2.45;;;0.73;;
50976;SDS011;36992;48.200;12.418;2023-12-28T03:24:55;1.98;;;0.57;;
50976;SDS011;36992;48.200;12.418;2023-12-28T03:27:22;2.25;;;0.80;;
50976;SDS011;36992;48.200;12.418;2023-12-28T03:29:48;1.73;;;0.93;;
50976;SDS011;36992;48.200;12.418;2023-12-28T03:32:15;2.25;;;0.60;;
50976;SDS011;36992;48.200;12.418;2023-12-28T03:34:43;1.67;;;0.47;;
50976;SDS011;36992;48.200;12.418;2023-12-28T03:37:09;1.65;;;0.60;;
50976;SDS011;36992;48.200;12.418;2023-12-28T03:39:36;1.08;;;0.50;;
50976;SDS011;36992;48.200;12.418;2023-12-28T03:42:03;1.65;;;0.60;;
50976;SDS011;36992;48.200;12.418;2023-12-28T03:44:30;1.50;;;0.50;;
50976;SDS011;36992;48.200;12.418;2023-12-28T03:46:56;1.40;;;0.45;;
50976;SDS011;36992;48.200;12.418;2023-12-28T03:49:23;2.53;;;0.65;;
50976;SDS011;36992;48.200;12.418;2023-12-28T03:51:51;2.20;;;0.68;;
50976;SDS011;36992;48.200;12.418;2023-12-28T03:54:18;1.48;;;0.50;;
50976;SDS011;36992;48.200;12.418;2023-12-28T03:56:45;2.45;;;0.90;;
50976;SDS011;36992;48.200;12.418;2023-12-28T03:59:13;2.65;;;0.63;;
50976;SDS011;36992;48.200;12.418;2023-12-28T04:01:40;1.50;;;0.50;;
50976;SDS011;36992;48.200;12.418;2023-12-28T04:04:07;2.65;;;0.60;;
50976;SDS011;36992;48.200;12.418;2023-12-28T04:06:34;1.60;;;0.50;;
50976;SDS011;36992;48.200;12.418;2023-12-28T04:09:02;2.08;;;0.50;;
50976;SDS011;36992;48.200;12.418;2023-12-28T04:11:29;2.45;;;0.65;;
50976;SDS011;36992;48.200;12.418;2023-12-28T04:13:56;1.52;;;0.43;;
50976;SDS011;36992;48.200;12.418;2023-12-28T04:16:22;2.13;;;1.10;;
50976;SDS011;36992;48.200;12.418;2023-12-28T04:18:49;1.65;;;0.90;;
50976;SDS011;36992;48.200;12.418;2023-12-28T04:21:15;1.70;;;0.50;;
50976;SDS011;36992;48.200;12.418;2023-12-28T04:23:42;1.88;;;0.70;;
50976;SDS011;36992;48.200;12.418;2023-12-28T04:26:10;1.88;;;0.70;;
50976;SDS011;36992;48.200;12.418;2023-12-28T04:28:36;2.08;;;0.55;;
50976;SDS011;36992;48.200;12.418;2023-12-28T04:31:03;3.38;;;0.75;;
50976;SDS011;36992;48.200;12.418;2023-12-28T04:33:30;2.03;;;0.75;;
50976;SDS011;36992;48.200;12.418;2023-12-28T04:35:57;1.17;;;0.50;;
50976;SDS011;36992;48.200;12.418;2023-12-28T04:38:26;2.53;;;0.50;;
50976;SDS011;36992;48.200;12.418;2023-12-28T04:40:53;1.63;;;0.55;;
50976;SDS011;36992;48.200;12.418;2023-12-28T04:43:20;1.00;;;0.40;;
50976;SDS011;36992;48.200;12.418;2023-12-28T04:45:48;2.20;;;0.55;;
50976;SDS011;36992;48.200;12.418;2023-12-28T04:48:15;2.03;;;0.60;;
50976;SDS011;36992;48.200;12.418;2023-12-28T04:50:45;1.80;;;0.57;;
50976;SDS011;36992;48.200;12.418;2023-12-28T04:53:12;4.28;;;1.15;;
50976;SDS011;36992;48.200;12.418;2023-12-28T04:55:39;1.27;;;0.47;;
50976;SDS011;36992;48.200;12.418;2023-12-28T04:58:05;2.17;;;0.47;;
50976;SDS011;36992;48.200;12.418;2023-12-28T05:00:33;1.02;;;0.40;;
50976;SDS011;36992;48.200;12.418;2023-12-28T05:03:00;1.58;;;0.43;;
50976;SDS011;36992;48.200;12.418;2023-12-28T05:05:26;1.58;;;0.40;;
50976;SDS011;36992;48.200;12.418;2023-12-28T05:07:53;2.13;;;0.52;;
50976;SDS011;36992;48.200;12.418;2023-12-28T05:10:20;2.30;;;0.65;;
50976;SDS011;36992;48.200;12.418;2023-12-28T05:12:46;1.85;;;0.63;;
50976;SDS011;36992;48.200;12.418;2023-12-28T05:15:13;1.73;;;0.47;;
50976;SDS011;36992;48.200;12.418;2023-12-28T05:17:41;1.73;;;0.50;;
50976;SDS011;36992;48.200;12.418;2023-12-28T05:20:08;1.52;;;0.40;;
50976;SDS011;36992;48.200;12.418;2023-12-28T05:22:35;1.80;;;0.55;;
50976;SDS011;36992;48.200;12.418;2023-12-28T05:25:02;3.05;;;0.65;;
50976;SDS011;36992;48.200;12.418;2023-12-28T05:27:29;2.13;;;0.70;;
50976;SDS011;36992;48.200;12.418;2023-12-28T05:29:56;2.97;;;1.00;;
50976;SDS011;36992;48.200;12.418;2023-12-28T05:32:22;1.38;;;0.40;;
50976;SDS011;36992;48.200;12.418;2023-12-28T05:34:50;1.88;;;0.50;;
50976;SDS011;36992;48.200;12.418;2023-12-28T05:37:16;2.58;;;0.68;;
50976;SDS011;36992;48.200;12.418;2023-12-28T05:39:43;1.65;;;0.60;;
50976;SDS011;36992;48.200;12.418;2023-12-28T05:42:09;2.00;;;0.47;;
50976;SDS011;36992;48.200;12.418;2023-12-28T05:44:36;1.95;;;0.50;;
50976;SDS011;36992;48.200;12.418;2023-12-28T05:47:02;2.45;;;0.52;;
50976;SDS011;36992;48.200;12.418;2023-12-28T05:49:29;1.80;;;0.70;;
50976;SDS011;36992;48.200;12.418;2023-12-28T05:51:58;1.17;;;0.50;;
50976;SDS011;36992;48.200;12.418;2023-12-28T05:54:24;1.52;;;0.70;;
50976;SDS011;36992;48.200;12.418;2023-12-28T05:56:51;1.00;;;0.40;;
50976;SDS011;36992;48.200;12.418;2023-12-28T05:59:17;2.95;;;0.90;;
50976;SDS011;36992;48.200;12.418;2023-12-28T06:01:44;2.88;;;0.90;;
50976;SDS011;36992;48.200;12.418;2023-12-28T06:04:12;3.08;;;1.00;;
50976;SDS011;36992;48.200;12.418;2023-12-28T06:06:38;2.58;;;0.80;;
50976;SDS011;36992;48.200;12.418;2023-12-28T06:09:06;2.20;;;0.70;;
50976;SDS011;36992;48.200;12.418;2023-12-28T06:11:33;1.55;;;0.40;;
50976;SDS011;36992;48.200;12.418;2023-12-28T06:13:59;1.58;;;0.52;;
50976;SDS011;36992;48.200;12.418;2023-12-28T06:16:26;2.28;;;0.65;;
50976;SDS011;36992;48.200;12.418;2023-12-28T06:18:56;1.83;;;0.65;;
50976;SDS011;36992;48.200;12.418;2023-12-28T06:21:22;1.75;;;0.70;;
50976;SDS011;36992;48.200;12.418;2023-12-28T06:23:49;1.42;;;0.40;;
50976;SDS011;36992;48.200;12.418;2023-12-28T06:26:17;1.45;;;0.50;;
50976;SDS011;36992;48.200;12.418;2023-12-28T06:28:43;1.48;;;0.50;;
50976;SDS011;36992;48.200;12.418;2023-12-28T06:31:10;2.05;;;0.73;;
50976;SDS011;36992;48.200;12.418;2023-12-28T06:33:36;1.50;;;0.50;;
50976;SDS011;36992;48.200;12.418;2023-12-28T06:36:07;1.85;;;0.52;;
50976;SDS011;36992;48.200;12.418;2023-12-28T06:38:34;1.48;;;0.50;;
50976;SDS011;36992;48.200;12.418;2023-12-28T06:41:00;1.75;;;0.52;;
50976;SDS011;36992;48.200;12.418;2023-12-28T06:43:28;2.65;;;0.85;;
50976;SDS011;36992;48.200;12.418;2023-12-28T06:45:55;3.75;;;1.60;;
50976;SDS011;36992;48.200;12.418;2023-12-28T06:48:21;5.15;;;1.65;;
50976;SDS011;36992;48.200;12.418;2023-12-28T06:50:49;8.32;;;2.88;;
50976;SDS011;36992;48.200;12.418;2023-12-28T06:53:16;5.78;;;2.22;;
50976;SDS011;36992;48.200;12.418;2023-12-28T06:55:42;4.25;;;1.83;;
50976;SDS011;36992;48.200;12.418;2023-12-28T06:58:09;4.25;;;1.65;;
50976;SDS011;36992;48.200;12.418;2023-12-28T07:00:37;3.28;;;1.35;;
50976;SDS011;36992;48.200;12.418;2023-12-28T07:03:03;3.22;;;0.82;;
50976;SDS011;36992;48.200;12.418;2023-12-28T07:05:30;3.45;;;1.50;;
50976;SDS011;36992;48.200;12.418;2023-12-28T07:07:57;4.53;;;2.00;;
50976;SDS011;36992;48.200;12.418;2023-12-28T07:10:23;2.80;;;1.27;;
50976;SDS011;36992;48.200;12.418;2023-12-28T07:12:50;2.83;;;1.08;;
50976;SDS011;36992;48.200;12.418;2023-12-28T07:15:16;2.65;;;1.00;;
50976;SDS011;36992;48.200;12.418;2023-12-28T07:17:44;3.65;;;1.10;;
50976;SDS011;36992;48.200;12.418;2023-12-28T07:20:11;2.58;;;0.80;;
50976;SDS011;36992;48.200;12.418;2023-12-28T07:22:38;4.03;;;0.77;;
50976;SDS011;36992;48.200;12.418;2023-12-28T07:25:04;3.80;;;1.35;;
50976;SDS011;36992;48.200;12.418;2023-12-28T07:27:32;3.97;;;1.02;;
50976;SDS011;36992;48.200;12.418;2023-12-28T07:29:58;2.58;;;1.10;;
50976;SDS011;36992;48.200;12.418;2023-12-28T07:32:25;3.20;;;1.00;;
50976;SDS011;36992;48.200;12.418;2023-12-28T07:34:53;2.28;;;0.82;;
50976;SDS011;36992;48.200;12.418;2023-12-28T07:37:20;2.45;;;1.02;;
50976;SDS011;36992;48.200;12.418;2023-12-28T07:39:46;2.35;;;0.80;;
50976;SDS011;36992;48.200;12.418;2023-12-28T07:42:13;1.75;;;0.45;;
50976;SDS011;36992;48.200;12.418;2023-12-28T07:44:40;2.45;;;0.60;;
50976;SDS011;36992;48.200;12.418;2023-12-28T07:47:07;1.73;;;0.63;;
50976;SDS011;36992;48.200;12.418;2023-12-28T07:49:33;1.90;;;0.60;;
50976;SDS011;36992;48.200;12.418;2023-12-28T07:52:01;2.03;;;0.70;;
50976;SDS011;36992;48.200;12.418;2023-12-28T07:54:28;2.00;;;0.70;;
50976;SDS011;36992;48.200;12.418;2023-12-28T07:56:54;2.97;;;0.90;;
50976;SDS011;36992;48.200;12.418;2023-12-28T07:59:21;1.85;;;0.57;;
50976;SDS011;36992;48.200;12.418;2023-12-28T08:01:47;3.05;;;0.80;;
50976;SDS011;36992;48.200;12.418;2023-12-28T08:04:14;2.70;;;1.02;;
50976;SDS011;36992;48.200;12.418;2023-12-28T08:06:41;3.00;;;1.10;;
50976;SDS011;36992;48.200;12.418;2023-12-28T08:09:08;2.97;;;1.05;;
50976;SDS011;36992;48.200;12.418;2023-12-28T08:11:35;2.58;;;1.02;;
50976;SDS011;36992;48.200;12.418;2023-12-28T08:14:01;2.55;;;0.70;;
50976;SDS011;36992;48.200;12.418;2023-12-28T08:16:28;3.28;;;0.82;;
50976;SDS011;36992;48.200;12.418;2023-12-28T08:18:55;2.28;;;0.88;;
50976;SDS011;36992;48.200;12.418;2023-12-28T08:21:21;1.65;;;0.70;;
50976;SDS011;36992;48.200;12.418;2023-12-28T08:23:48;1.85;;;0.55;;
50976;SDS011;36992;48.200;12.418;2023-12-28T08:26:16;2.20;;;0.68;;
50976;SDS011;36992;48.200;12.418;2023-12-28T08:28:43;1.92;;;0.60;;
50976;SDS011;36992;48.200;12.418;2023-12-28T08:31:09;1.50;;;0.50;;
50976;SDS011;36992;48.200;12.418;2023-12-28T08:33:36;2.35;;;0.70;;
50976;SDS011;36992;48.200;12.418;2023-12-28T08:36:04;3.40;;;0.60;;
50976;SDS011;36992;48.200;12.418;2023-12-28T08:38:31;3.70;;;0.77;;
50976;SDS011;36992;48.200;12.418;2023-12-28T08:40:57;2.70;;;0.80;;
50976;SDS011;36992;48.200;12.418;2023-12-28T08:43:25;2.28;;;0.70;;
50976;SDS011;36992;48.200;12.418;2023-12-28T08:45:53;2.10;;;0.60;;
50976;SDS011;36992;48.200;12.418;2023-12-28T08:48:20;2.30;;;0.68;;
50976;SDS011;36992;48.200;12.418;2023-12-28T08:50:46;2.10;;;0.80;;
50976;SDS011;36992;48.200;12.418;2023-12-28T08:53:14;1.83;;;0.77;;
50976;SDS011;36992;48.200;12.418;2023-12-28T08:55:40;1.80;;;0.75;;
50976;SDS011;36992;48.200;12.418;2023-12-28T08:58:07;2.25;;;0.50;;
50976;SDS011;36992;48.200;12.418;2023-12-28T09:00:35;2.70;;;0.65;;
50976;SDS011;36992;48.200;12.418;2023-12-28T09:03:03;3.85;;;1.35;;
50976;SDS011;36992;48.200;12.418;2023-12-28T09:05:29;5.07;;;1.45;;
50976;SDS011;36992;48.200;12.418;2023-12-28T09:07:56;4.20;;;2.15;;
50976;SDS011;36992;48.200;12.418;2023-12-28T09:10:23;3.92;;;1.63;;
50976;SDS011;36992;48.200;12.418;2023-12-28T09:12:49;4.05;;;1.35;;
50976;SDS011;36992;48.200;12.418;2023-12-28T09:15:16;3.78;;;1.50;;
50976;SDS011;36992;48.200;12.418;2023-12-28T09:17:44;3.53;;;1.20;;
50976;SDS011;36992;48.200;12.418;2023-12-28T09:20:10;5.25;;;0.90;;
50976;SDS011;36992;48.200;12.418;2023-12-28T09:22:38;4.70;;;1.25;;
50976;SDS011;36992;48.200;12.418;2023-12-28T09:25:05;2.72;;;0.90;;
50976;SDS011;36992;48.200;12.418;2023-12-28T09:27:32;2.30;;;0.85;;
50976;SDS011;36992;48.200;12.418;2023-12-28T09:29:58;2.50;;;0.95;;
50976;SDS011;36992;48.200;12.418;2023-12-28T09:32:25;3.08;;;0.95;;
50976;SDS011;36992;48.200;12.418;2023-12-28T09:34:53;3.10;;;1.08;;
50976;SDS011;36992;48.200;12.418;2023-12-28T09:37:20;2.42;;;0.82;;
50976;SDS011;36992;48.200;12.418;2023-12-28T09:39:47;1.70;;;0.50;;
50976;SDS011;36992;48.200;12.418;2023-12-28T09:42:16;2.53;;;0.60;;
50976;SDS011;36992;48.200;12.418;2023-12-28T09:44:47;1.95;;;0.50;;
50976;SDS011;36992;48.200;12.418;2023-12-28T09:47:14;2.90;;;0.95;;
50976;SDS011;36992;48.200;12.418;2023-12-28T09:49:42;2.80;;;0.90;;
50976;SDS011;36992;48.200;12.418;2023-12-28T09:52:11;2.45;;;1.02;;
50976;SDS011;36992;48.200;12.418;2023-12-28T09:54:38;2.58;;;0.63;;
50976;SDS011;36992;48.200;12.418;2023-12-28T09:57:05;3.03;;;0.63;;
50976;SDS011;36992;48.200;12.418;2023-12-28T09:59:31;1.17;;;0.52;;
50976;SDS011;36992;48.200;12.418;2023-12-28T10:01:59;2.20;;;0.98;;
50976;SDS011;36992;48.200;12.418;2023-12-28T10:04:28;3.53;;;1.00;;
50976;SDS011;36992;48.200;12.418;2023-12-28T10:06:55;2.55;;;0.80;;
50976;SDS011;36992;48.200;12.418;2023-12-28T10:09:22;2.30;;;0.85;;
50976;SDS011;36992;48.200;12.418;2023-12-28T10:11:51;2.50;;;0.75;;
50976;SDS011;36992;48.200;12.418;2023-12-28T10:14:19;1.52;;;0.45;;
50976;SDS011;36992;48.200;12.418;2023-12-28T10:16:45;2.72;;;1.00;;
50976;SDS011;36992;48.200;12.418;2023-12-28T10:19:13;1.75;;;0.57;;
50976;SDS011;36992;48.200;12.418;2023-12-28T10:21:39;2.33;;;0.60;;
50976;SDS011;36992;48.200;12.418;2023-12-28T10:24:06;2.35;;;0.50;;
50976;SDS011;36992;48.200;12.418;2023-12-28T10:26:34;2.30;;;0.60;;
50976;SDS011;36992;48.200;12.418;2023-12-28T10:29:01;1.63;;;0.70;;
50976;SDS011;36992;48.200;12.418;2023-12-28T10:31:28;2.35;;;0.70;;
50976;SDS011;36992;48.200;12.418;2023-12-28T10:33:57;1.52;;;0.50;;
50976;SDS011;36992;48.200;12.418;2023-12-28T10:36:24;2.95;;;0.68;;
50976;SDS011;36992;48.200;12.418;2023-12-28T10:38:53;3.13;;;0.88;;
50976;SDS011;36992;48.200;12.418;2023-12-28T10:41:20;2.10;;;0.60;;
50976;SDS011;36992;48.200;12.418;2023-12-28T10:44:00;2.10;;;0.70;;
50976;SDS011;36992;48.200;12.418;2023-12-28T10:46:30;1.67;;;0.68;;
50976;SDS011;36992;48.200;12.418;2023-12-28T10:48:58;2.20;;;0.73;;
50976;SDS011;36992;48.200;12.418;2023-12-28T10:51:27;1.98;;;0.60;;
50976;SDS011;36992;48.200;12.418;2023-12-28T10:53:56;5.78;;;0.65;;
50976;SDS011;36992;48.200;12.418;2023-12-28T10:56:32;1.67;;;0.50;;
50976;SDS011;36992;48.200;12.418;2023-12-28T10:59:05;1.60;;;0.52;;
50976;SDS011;36992;48.200;12.418;2023-12-28T11:01:41;1.83;;;0.60;;
50976;SDS011;36992;48.200;12.418;2023-12-28T11:04:11;2.42;;;0.60;;
50976;SDS011;36992;48.200;12.418;2023-12-28T11:06:44;1.40;;;0.40;;
50976;SDS011;36992;48.200;12.418;2023-12-28T11:09:12;1.55;;;0.45;;
50976;SDS011;36992;48.200;12.418;2023-12-28T11:11:41;1.85;;;0.60;;
50976;SDS011;36992;48.200;12.418;2023-12-28T11:14:11;1.90;;;0.55;;
50976;SDS011;36992;48.200;12.418;2023-12-28T11:16:40;3.50;;;0.77;;
50976;SDS011;36992;48.200;12.418;2023-12-28T11:19:07;1.95;;;0.38;;
50976;SDS011;36992;48.200;12.418;2023-12-28T11:21:36;1.83;;;0.63;;
50976;SDS011;36992;48.200;12.418;2023-12-28T11:24:04;2.15;;;0.63;;
50976;SDS011;36992;48.200;12.418;2023-12-28T11:26:32;2.30;;;0.65;;
50976;SDS011;36992;48.200;12.418;2023-12-28T11:29:02;1.70;;;0.43;;
50976;SDS011;36992;48.200;12.418;2023-12-28T11:31:32;2.13;;;0.43;;
50976;SDS011;36992;48.200;12.418;2023-12-28T11:34:00;1.77;;;0.70;;
50976;SDS011;36992;48.200;12.418;2023-12-28T11:36:32;1.65;;;0.50;;
50976;SDS011;36992;48.200;12.418;2023-12-28T11:39:01;2.20;;;0.80;;
50976;SDS011;36992;48.200;12.418;2023-12-28T11:41:30;1.77;;;0.43;;
50976;SDS011;36992;48.200;12.418;2023-12-28T11:44:01;1.80;;;0.60;;
50976;SDS011;36992;48.200;12.418;2023-12-28T11:46:30;2.63;;;0.60;;
50976;SDS011;36992;48.200;12.418;2023-12-28T11:49:04;1.85;;;0.63;;
50976;SDS011;36992;48.200;12.418;2023-12-28T11:51:31;2.08;;;0.60;;
50976;SDS011;36992;48.200;12.418;2023-12-28T11:53:58;2.22;;;0.80;;
50976;SDS011;36992;48.200;12.418;2023-12-28T11:56:25;1.33;;;0.60;;
50976;SDS011;36992;48.200;12.418;2023-12-28T11:58:52;1.92;;;0.50;;
50976;SDS011;36992;48.200;12.418;2023-12-28T12:01:18;2.60;;;0.57;;
50976;SDS011;36992;48.200;12.418;2023-12-28T12:03:45;2.30;;;0.80;;
50976;SDS011;36992;48.200;12.418;2023-12-28T12:06:13;3.03;;;0.43;;
50976;SDS011;36992;48.200;12.418;2023-12-28T12:08:39;1.90;;;0.50;;
50976;SDS011;36992;48.200;12.418;2023-12-28T12:11:06;1.90;;;0.60;;
50976;SDS011;36992;48.200;12.418;2023-12-28T12:13:33;3.85;;;0.63;;
50976;SDS011;36992;48.200;12.418;2023-12-28T12:16:01;1.58;;;0.60;;
50976;SDS011;36992;48.200;12.418;2023-12-28T12:18:30;1.60;;;0.52;;
50976;SDS011;36992;48.200;12.418;2023-12-28T12:20:57;1.88;;;0.60;;
50976;SDS011;36992;48.200;12.418;2023-12-28T12:23:25;5.07;;;1.00;;
50976;SDS011;36992;48.200;12.418;2023-12-28T12:25:52;1.92;;;0.75;;
50976;SDS011;36992;48.200;12.418;2023-12-28T12:28:18;3.08;;;0.80;;
50976;SDS011;36992;48.200;12.418;2023-12-28T12:30:49;3.38;;;0.55;;
50976;SDS011;36992;48.200;12.418;2023-12-28T12:33:17;2.50;;;0.93;;
50976;SDS011;36992;48.200;12.418;2023-12-28T12:35:43;2.00;;;0.77;;
50976;SDS011;36992;48.200;12.418;2023-12-28T12:38:10;1.65;;;0.57;;
50976;SDS011;36992;48.200;12.418;2023-12-28T12:40:38;1.52;;;0.40;;
50976;SDS011;36992;48.200;12.418;2023-12-28T12:43:05;1.95;;;0.43;;
50976;SDS011;36992;48.200;12.418;2023-12-28T12:45:34;1.40;;;0.57;;
50976;SDS011;36992;48.200;12.418;2023-12-28T12:48:01;0.93;;;0.40;;
50976;SDS011;36992;48.200;12.418;2023-12-28T12:50:28;2.08;;;0.70;;
50976;SDS011;36992;48.200;12.418;2023-12-28T12:52:55;3.67;;;0.80;;
50976;SDS011;36992;48.200;12.418;2023-12-28T12:55:21;2.45;;;0.63;;
50976;SDS011;36992;48.200;12.418;2023-12-28T12:57:51;2.05;;;0.50;;
50976;SDS011;36992;48.200;12.418;2023-12-28T13:00:21;2.03;;;0.70;;
50976;SDS011;36992;48.200;12.418;2023-12-28T13:02:48;1.55;;;0.60;;
50976;SDS011;36992;48.200;12.418;2023-12-28T13:05:15;2.97;;;0.88;;
50976;SDS011;36992;48.200;12.418;2023-12-28T13:07:43;1.98;;;0.73;;
50976;SDS011;36992;48.200;12.418;2023-12-28T13:10:09;1.58;;;0.60;;
50976;SDS011;36992;48.200;12.418;2023-12-28T13:12:36;1.60;;;0.52;;
50976;SDS011;36992;48.200;12.418;2023-12-28T13:15:05;3.22;;;1.45;;
50976;SDS011;36992;48.200;12.418;2023-12-28T13:17:34;3.25;;;1.75;;
50976;SDS011;36992;48.200;12.418;2023-12-28T13:20:01;1.48;;;0.60;;
50976;SDS011;36992;48.200;12.418;2023-12-28T13:22:28;2.08;;;0.70;;
50976;SDS011;36992;48.200;12.418;2023-12-28T13:24:54;3.47;;;0.82;;
50976;SDS011;36992;48.200;12.418;2023-12-28T13:27:22;1.92;;;0.70;;
50976;SDS011;36992;48.200;12.418;2023-12-28T13:29:49;1.75;;;0.50;;
50976;SDS011;36992;48.200;12.418;2023-12-28T13:32:16;2.10;;;0.65;;
50976;SDS011;36992;48.200;12.418;2023-12-28T13:34:43;2.47;;;0.73;;
50976;SDS011;36992;48.200;12.418;2023-12-28T13:37:09;2.47;;;0.75;;
50976;SDS011;36992;48.200;12.418;2023-12-28T13:39:36;2.05;;;0.75;;
50976;SDS011;36992;48.200;12.418;2023-12-28T13:42:04;2.08;;;0.65;;
50976;SDS011;36992;48.200;12.418;2023-12-28T13:44:32;3.45;;;0.93;;
50976;SDS011;36992;48.200;12.418;2023-12-28T13:46:59;3.50;;;1.25;;
50976;SDS011;36992;48.200;12.418;2023-12-28T13:49:27;4.00;;;1.00;;
50976;SDS011;36992;48.200;12.418;2023-12-28T13:51:52;2.63;;;0.90;;
50976;SDS011;36992;48.200;12.418;2023-12-28T13:54:19;2.92;;;0.82;;
50976;SDS011;36992;48.200;12.418;2023-12-28T13:56:46;3.15;;;1.02;;
50976;SDS011;36992;48.200;12.418;2023-12-28T13:59:12;1.80;;;0.80;;
50976;SDS011;36992;48.200;12.418;2023-12-28T14:01:39;3.22;;;0.90;;
50976;SDS011;36992;48.200;12.418;2023-12-28T14:04:06;2.10;;;0.55;;
50976;SDS011;36992;48.200;12.418;2023-12-28T14:06:34;5.80;;;0.80;;
50976;SDS011;36992;48.200;12.418;2023-12-28T14:09:01;2.10;;;0.68;;
50976;SDS011;36992;48.200;12.418;2023-12-28T14:11:27;1.73;;;0.75;;
50976;SDS011;36992;48.200;12.418;2023-12-28T14:13:54;3.55;;;1.10;;
50976;SDS011;36992;48.200;12.418;2023-12-28T14:16:21;2.40;;;0.82;;
50976;SDS011;36992;48.200;12.418;2023-12-28T14:18:47;2.83;;;0.98;;
50976;SDS011;36992;48.200;12.418;2023-12-28T14:21:15;3.67;;;1.00;;
50976;SDS011;36992;48.200;12.418;2023-12-28T14:23:44;4.68;;;1.85;;
50976;SDS011;36992;48.200;12.418;2023-12-28T14:26:12;1.92;;;0.77;;
50976;SDS011;36992;48.200;12.418;2023-12-28T14:28:40;4.13;;;0.65;;
50976;SDS011;36992;48.200;12.418;2023-12-28T14:31:08;3.45;;;1.20;;
50976;SDS011;36992;48.200;12.418;2023-12-28T14:33:35;1.95;;;0.70;;